sensor_id;sensor_type;location;lat;lon;timestamp;P1;durP1;ratioP1;P2;durP2;ratioP2
22644;SDS011;11489;50.834;6.752;2023-07-29T00:00:33;1.20;;;1.10;;
22644;SDS011;11489;50.834;6.752;2023-07-29T00:02:59;2.45;;;1.20;;
22644;SDS011;11489;50.834;6.752;2023-07-29T00:05:25;1.20;;;1.10;;
22644;SDS011;11489;50.834;6.752;2023-07-29T00:07:50;1.45;;;1.35;;
22644;SDS011;11489;50.834;6.752;2023-07-29T00:10:16;1.13;;;1.10;;
22644;SDS011;11489;50.834;6.752;2023-07-29T00:12:41;2.00;;;1.33;;
22644;SDS011;11489;50.834;6.752;2023-07-29T00:15:07;2.30;;;1.33;;
22644;SDS011;11489;50.834;6.752;2023-07-29T00:17:33;3.05;;;1.17;;
22644;SDS011;11489;50.834;6.752;2023-07-29T00:19:59;3.58;;;1.30;;
22644;SDS011;11489;50.834;6.752;2023-07-29T00:22:24;1.90;;;1.20;;
22644;SDS011;11489;50.834;6.752;2023-07-29T00:24:53;2.05;;;1.50;;
22644;SDS011;11489;50.834;6.752;2023-07-29T00:27:20;3.88;;;1.30;;
22644;SDS011;11489;50.834;6.752;2023-07-29T00:29:46;2.92;;;1.20;;
22644;SDS011;11489;50.834;6.752;2023-07-29T00:32:12;1.35;;;1.10;;
22644;SDS011;11489;50.834;6.752;2023-07-29T00:34:37;1.27;;;1.10;;
22644;SDS011;11489;50.834;6.752;2023-07-29T00:37:03;1.90;;;1.10;;
22644;SDS011;11489;50.834;6.752;2023-07-29T00:39:32;1.27;;;1.17;;
22644;SDS011;11489;50.834;6.752;2023-07-29T00:41:58;1.85;;;1.10;;
22644;SDS011;11489;50.834;6.752;2023-07-29T00:44:23;2.83;;;1.15;;
22644;SDS011;11489;50.834;6.752;2023-07-29T00:46:49;2.22;;;1.30;;
22644;SDS011;11489;50.834;6.752;2023-07-29T00:49:17;2.50;;;1.30;;
22644;SDS011;11489;50.834;6.752;2023-07-29T00:51:43;2.88;;;1.15;;
22644;SDS011;11489;50.834;6.752;2023-07-29T00:54:09;2.58;;;1.35;;
22644;SDS011;11489;50.834;6.752;2023-07-29T00:56:34;1.17;;;1.08;;
22644;SDS011;11489;50.834;6.752;2023-07-29T00:59:01;3.95;;;1.50;;
22644;SDS011;11489;50.834;6.752;2023-07-29T01:01:27;1.42;;;1.00;;
22644;SDS011;11489;50.834;6.752;2023-07-29T01:03:54;1.33;;;1.05;;
22644;SDS011;11489;50.834;6.752;2023-07-29T01:06:23;2.95;;;1.17;;
22644;SDS011;11489;50.834;6.752;2023-07-29T01:09:18;2.22;;;1.30;;
22644;SDS011;11489;50.834;6.752;2023-07-29T01:11:58;1.35;;;1.20;;
22644;SDS011;11489;50.834;6.752;2023-07-29T01:17:08;2.13;;;1.45;;
22644;SDS011;11489;50.834;6.752;2023-07-29T01:22:33;1.35;;;1.25;;
22644;SDS011;11489;50.834;6.752;2023-07-29T01:25:00;2.83;;;1.40;;
22644;SDS011;11489;50.834;6.752;2023-07-29T01:27:26;3.92;;;1.50;;
22644;SDS011;11489;50.834;6.752;2023-07-29T01:29:52;1.50;;;1.17;;
22644;SDS011;11489;50.834;6.752;2023-07-29T01:32:28;1.60;;;1.25;;
22644;SDS011;11489;50.834;6.752;2023-07-29T01:35:14;1.95;;;1.30;;
22644;SDS011;11489;50.834;6.752;2023-07-29T01:37:44;2.65;;;1.33;;
22644;SDS011;11489;50.834;6.752;2023-07-29T01:40:14;5.05;;;1.38;;
22644;SDS011;11489;50.834;6.752;2023-07-29T01:42:40;11.45;;;1.60;;
22644;SDS011;11489;50.834;6.752;2023-07-29T01:45:06;4.15;;;1.40;;
22644;SDS011;11489;50.834;6.752;2023-07-29T01:47:32;11.77;;;1.60;;
22644;SDS011;11489;50.834;6.752;2023-07-29T01:49:58;1.35;;;1.00;;
22644;SDS011;11489;50.834;6.752;2023-07-29T01:52:23;1.80;;;1.13;;
22644;SDS011;11489;50.834;6.752;2023-07-29T01:54:49;1.85;;;1.20;;
22644;SDS011;11489;50.834;6.752;2023-07-29T01:57:15;2.80;;;1.40;;
22644;SDS011;11489;50.834;6.752;2023-07-29T01:59:40;3.25;;;1.42;;
22644;SDS011;11489;50.834;6.752;2023-07-29T02:02:06;1.67;;;1.17;;
22644;SDS011;11489;50.834;6.752;2023-07-29T02:04:31;4.15;;;1.30;;
22644;SDS011;11489;50.834;6.752;2023-07-29T02:06:57;2.92;;;1.52;;
22644;SDS011;11489;50.834;6.752;2023-07-29T02:09:23;3.70;;;1.55;;
22644;SDS011;11489;50.834;6.752;2023-07-29T02:11:48;3.17;;;1.50;;
22644;SDS011;11489;50.834;6.752;2023-07-29T02:14:14;2.75;;;1.60;;
22644;SDS011;11489;50.834;6.752;2023-07-29T02:16:39;1.65;;;1.40;;
22644;SDS011;11489;50.834;6.752;2023-07-29T02:19:05;2.28;;;1.02;;
22644;SDS011;11489;50.834;6.752;2023-07-29T02:21:31;2.03;;;1.15;;
22644;SDS011;11489;50.834;6.752;2023-07-29T02:23:56;2.67;;;1.42;;
22644;SDS011;11489;50.834;6.752;2023-07-29T02:26:22;3.03;;;1.30;;
22644;SDS011;11489;50.834;6.752;2023-07-29T02:28:48;2.20;;;1.27;;
22644;SDS011;11489;50.834;6.752;2023-07-29T02:31:20;1.98;;;1.10;;
22644;SDS011;11489;50.834;6.752;2023-07-29T02:33:47;1.65;;;1.20;;
22644;SDS011;11489;50.834;6.752;2023-07-29T02:36:13;1.52;;;0.95;;
22644;SDS011;11489;50.834;6.752;2023-07-29T02:38:42;2.90;;;1.10;;
22644;SDS011;11489;50.834;6.752;2023-07-29T02:41:08;2.00;;;1.05;;
22644;SDS011;11489;50.834;6.752;2023-07-29T02:43:35;4.68;;;1.00;;
22644;SDS011;11489;50.834;6.752;2023-07-29T02:46:01;1.15;;;1.05;;
22644;SDS011;11489;50.834;6.752;2023-07-29T02:48:27;1.42;;;1.20;;
22644;SDS011;11489;50.834;6.752;2023-07-29T02:50:54;3.05;;;1.10;;
22644;SDS011;11489;50.834;6.752;2023-07-29T02:53:20;1.10;;;1.00;;
22644;SDS011;11489;50.834;6.752;2023-07-29T02:55:47;2.15;;;1.00;;
22644;SDS011;11489;50.834;6.752;2023-07-29T02:58:12;3.33;;;1.27;;
22644;SDS011;11489;50.834;6.752;2023-07-29T03:00:38;2.65;;;1.10;;
22644;SDS011;11489;50.834;6.752;2023-07-29T03:03:07;1.25;;;1.02;;
22644;SDS011;11489;50.834;6.752;2023-07-29T03:05:33;1.92;;;0.95;;
22644;SDS011;11489;50.834;6.752;2023-07-29T03:07:59;5.25;;;1.27;;
22644;SDS011;11489;50.834;6.752;2023-07-29T03:10:24;2.75;;;1.25;;
22644;SDS011;11489;50.834;6.752;2023-07-29T03:12:50;1.40;;;1.30;;
22644;SDS011;11489;50.834;6.752;2023-07-29T03:15:16;1.30;;;1.20;;
22644;SDS011;11489;50.834;6.752;2023-07-29T03:17:42;1.20;;;1.10;;
22644;SDS011;11489;50.834;6.752;2023-07-29T03:20:07;1.00;;;0.90;;
22644;SDS011;11489;50.834;6.752;2023-07-29T03:22:33;1.20;;;1.10;;
22644;SDS011;11489;50.834;6.752;2023-07-29T03:24:59;1.33;;;1.20;;
22644;SDS011;11489;50.834;6.752;2023-07-29T03:27:24;1.30;;;1.10;;
22644;SDS011;11489;50.834;6.752;2023-07-29T03:29:50;1.05;;;0.90;;
22644;SDS011;11489;50.834;6.752;2023-07-29T03:32:16;1.30;;;1.00;;
22644;SDS011;11489;50.834;6.752;2023-07-29T03:34:42;1.10;;;1.00;;
22644;SDS011;11489;50.834;6.752;2023-07-29T03:37:07;1.52;;;1.17;;
22644;SDS011;11489;50.834;6.752;2023-07-29T03:39:33;1.17;;;0.98;;
22644;SDS011;11489;50.834;6.752;2023-07-29T03:41:59;1.20;;;1.10;;
22644;SDS011;11489;50.834;6.752;2023-07-29T03:44:24;2.17;;;1.17;;
22644;SDS011;11489;50.834;6.752;2023-07-29T03:46:50;1.50;;;1.02;;
22644;SDS011;11489;50.834;6.752;2023-07-29T03:49:16;0.82;;;0.80;;
22644;SDS011;11489;50.834;6.752;2023-07-29T03:51:42;1.48;;;1.20;;
22644;SDS011;11489;50.834;6.752;2023-07-29T03:54:07;1.35;;;1.13;;
22644;SDS011;11489;50.834;6.752;2023-07-29T03:56:33;2.60;;;1.10;;
22644;SDS011;11489;50.834;6.752;2023-07-29T03:59:03;2.72;;;1.20;;
22644;SDS011;11489;50.834;6.752;2023-07-29T04:01:30;1.88;;;1.25;;
22644;SDS011;11489;50.834;6.752;2023-07-29T04:03:56;3.42;;;1.40;;
22644;SDS011;11489;50.834;6.752;2023-07-29T04:06:22;1.52;;;1.42;;
22644;SDS011;11489;50.834;6.752;2023-07-29T04:08:48;1.52;;;1.42;;
22644;SDS011;11489;50.834;6.752;2023-07-29T04:11:14;3.33;;;1.50;;
22644;SDS011;11489;50.834;6.752;2023-07-29T04:13:40;1.63;;;1.52;;
22644;SDS011;11489;50.834;6.752;2023-07-29T04:16:06;2.03;;;1.80;;
22644;SDS011;11489;50.834;6.752;2023-07-29T04:18:32;1.90;;;1.73;;
22644;SDS011;11489;50.834;6.752;2023-07-29T04:20:58;2.67;;;1.70;;
22644;SDS011;11489;50.834;6.752;2023-07-29T04:23:23;2.03;;;1.80;;
22644;SDS011;11489;50.834;6.752;2023-07-29T04:25:49;2.15;;;1.80;;
22644;SDS011;11489;50.834;6.752;2023-07-29T04:28:15;2.22;;;1.85;;
22644;SDS011;11489;50.834;6.752;2023-07-29T04:30:41;2.47;;;1.98;;
22644;SDS011;11489;50.834;6.752;2023-07-29T04:33:06;3.65;;;1.70;;
22644;SDS011;11489;50.834;6.752;2023-07-29T04:35:32;1.67;;;1.58;;
22644;SDS011;11489;50.834;6.752;2023-07-29T04:37:58;2.28;;;1.45;;
22644;SDS011;11489;50.834;6.752;2023-07-29T04:40:23;1.75;;;1.50;;
22644;SDS011;11489;50.834;6.752;2023-07-29T04:42:50;1.80;;;1.42;;
22644;SDS011;11489;50.834;6.752;2023-07-29T04:45:16;1.67;;;1.50;;
22644;SDS011;11489;50.834;6.752;2023-07-29T04:47:42;1.40;;;1.30;;
22644;SDS011;11489;50.834;6.752;2023-07-29T04:50:08;2.50;;;1.45;;
22644;SDS011;11489;50.834;6.752;2023-07-29T04:52:34;3.10;;;1.75;;
22644;SDS011;11489;50.834;6.752;2023-07-29T04:54:59;1.90;;;1.55;;
22644;SDS011;11489;50.834;6.752;2023-07-29T04:57:25;1.60;;;1.50;;
22644;SDS011;11489;50.834;6.752;2023-07-29T04:59:51;3.90;;;1.48;;
22644;SDS011;11489;50.834;6.752;2023-07-29T05:02:16;2.33;;;1.30;;
22644;SDS011;11489;50.834;6.752;2023-07-29T05:04:42;1.40;;;1.27;;
22644;SDS011;11489;50.834;6.752;2023-07-29T05:07:08;2.10;;;1.27;;
22644;SDS011;11489;50.834;6.752;2023-07-29T05:09:33;2.03;;;1.58;;
22644;SDS011;11489;50.834;6.752;2023-07-29T05:11:59;2.92;;;1.42;;
22644;SDS011;11489;50.834;6.752;2023-07-29T05:14:25;1.52;;;1.42;;
22644;SDS011;11489;50.834;6.752;2023-07-29T05:16:51;1.70;;;1.60;;
22644;SDS011;11489;50.834;6.752;2023-07-29T05:19:17;1.55;;;1.45;;
22644;SDS011;11489;50.834;6.752;2023-07-29T05:21:43;1.42;;;1.33;;
22644;SDS011;11489;50.834;6.752;2023-07-29T05:24:08;2.80;;;1.70;;
22644;SDS011;11489;50.834;6.752;2023-07-29T05:26:34;2.08;;;1.60;;
22644;SDS011;11489;50.834;6.752;2023-07-29T05:29:00;2.92;;;1.40;;
22644;SDS011;11489;50.834;6.752;2023-07-29T05:31:25;2.35;;;1.50;;
22644;SDS011;11489;50.834;6.752;2023-07-29T05:33:51;3.42;;;1.60;;
22644;SDS011;11489;50.834;6.752;2023-07-29T05:36:17;3.30;;;1.85;;
22644;SDS011;11489;50.834;6.752;2023-07-29T05:38:42;2.80;;;1.75;;
22644;SDS011;11489;50.834;6.752;2023-07-29T05:41:08;3.45;;;2.00;;
22644;SDS011;11489;50.834;6.752;2023-07-29T05:43:34;3.15;;;1.80;;
22644;SDS011;11489;50.834;6.752;2023-07-29T05:45:59;3.10;;;2.05;;
22644;SDS011;11489;50.834;6.752;2023-07-29T05:48:25;3.40;;;2.15;;
22644;SDS011;11489;50.834;6.752;2023-07-29T05:50:50;3.10;;;2.20;;
22644;SDS011;11489;50.834;6.752;2023-07-29T05:53:16;2.22;;;2.03;;
22644;SDS011;11489;50.834;6.752;2023-07-29T05:55:42;2.00;;;1.80;;
22644;SDS011;11489;50.834;6.752;2023-07-29T05:58:07;4.07;;;1.90;;
22644;SDS011;11489;50.834;6.752;2023-07-29T06:00:34;3.03;;;2.10;;
22644;SDS011;11489;50.834;6.752;2023-07-29T06:03:00;3.25;;;2.00;;
22644;SDS011;11489;50.834;6.752;2023-07-29T06:05:25;2.30;;;1.90;;
22644;SDS011;11489;50.834;6.752;2023-07-29T06:07:51;3.17;;;2.13;;
22644;SDS011;11489;50.834;6.752;2023-07-29T06:10:17;2.28;;;2.08;;
22644;SDS011;11489;50.834;6.752;2023-07-29T06:12:43;2.75;;;2.03;;
22644;SDS011;11489;50.834;6.752;2023-07-29T06:15:10;3.40;;;2.10;;
22644;SDS011;11489;50.834;6.752;2023-07-29T06:17:35;3.22;;;2.05;;
22644;SDS011;11489;50.834;6.752;2023-07-29T06:20:01;3.33;;;2.20;;
22644;SDS011;11489;50.834;6.752;2023-07-29T06:22:28;3.25;;;2.38;;
22644;SDS011;11489;50.834;6.752;2023-07-29T06:24:53;2.17;;;1.98;;
22644;SDS011;11489;50.834;6.752;2023-07-29T06:27:19;2.63;;;2.20;;
22644;SDS011;11489;50.834;6.752;2023-07-29T06:29:45;2.65;;;2.38;;
22644;SDS011;11489;50.834;6.752;2023-07-29T06:32:10;4.45;;;2.33;;
22644;SDS011;11489;50.834;6.752;2023-07-29T06:34:36;4.18;;;2.78;;
22644;SDS011;11489;50.834;6.752;2023-07-29T06:37:02;6.78;;;2.70;;
22644;SDS011;11489;50.834;6.752;2023-07-29T06:39:27;6.68;;;2.88;;
22644;SDS011;11489;50.834;6.752;2023-07-29T06:41:53;5.13;;;2.72;;
22644;SDS011;11489;50.834;6.752;2023-07-29T06:44:18;6.03;;;3.08;;
22644;SDS011;11489;50.834;6.752;2023-07-29T06:46:44;8.63;;;3.33;;
22644;SDS011;11489;50.834;6.752;2023-07-29T06:49:10;5.30;;;3.20;;
22644;SDS011;11489;50.834;6.752;2023-07-29T06:51:35;5.75;;;3.15;;
22644;SDS011;11489;50.834;6.752;2023-07-29T06:54:01;7.47;;;3.45;;
22644;SDS011;11489;50.834;6.752;2023-07-29T06:56:28;6.72;;;3.22;;
22644;SDS011;11489;50.834;6.752;2023-07-29T06:58:53;4.53;;;3.40;;
22644;SDS011;11489;50.834;6.752;2023-07-29T07:01:19;3.83;;;2.97;;
22644;SDS011;11489;50.834;6.752;2023-07-29T07:03:45;3.70;;;2.92;;
22644;SDS011;11489;50.834;6.752;2023-07-29T07:06:10;4.47;;;3.17;;
22644;SDS011;11489;50.834;6.752;2023-07-29T07:08:36;4.28;;;2.67;;
22644;SDS011;11489;50.834;6.752;2023-07-29T07:11:01;2.95;;;2.58;;
22644;SDS011;11489;50.834;6.752;2023-07-29T07:13:27;3.42;;;2.80;;
22644;SDS011;11489;50.834;6.752;2023-07-29T07:15:56;3.58;;;2.55;;
22644;SDS011;11489;50.834;6.752;2023-07-29T07:18:22;2.97;;;2.33;;
22644;SDS011;11489;50.834;6.752;2023-07-29T07:20:48;2.50;;;2.30;;
22644;SDS011;11489;50.834;6.752;2023-07-29T07:23:15;2.42;;;2.22;;
22644;SDS011;11489;50.834;6.752;2023-07-29T07:25:41;4.03;;;2.33;;
22644;SDS011;11489;50.834;6.752;2023-07-29T07:28:09;2.42;;;2.22;;
22644;SDS011;11489;50.834;6.752;2023-07-29T07:30:35;6.13;;;2.53;;
22644;SDS011;11489;50.834;6.752;2023-07-29T07:33:05;2.85;;;2.17;;
22644;SDS011;11489;50.834;6.752;2023-07-29T07:35:31;3.80;;;2.08;;
22644;SDS011;11489;50.834;6.752;2023-07-29T07:37:56;4.70;;;2.13;;
22644;SDS011;11489;50.834;6.752;2023-07-29T07:40:23;2.90;;;1.83;;
22644;SDS011;11489;50.834;6.752;2023-07-29T07:42:49;2.85;;;1.92;;
22644;SDS011;11489;50.834;6.752;2023-07-29T07:45:15;1.90;;;1.65;;
22644;SDS011;11489;50.834;6.752;2023-07-29T07:47:42;2.58;;;1.77;;
22644;SDS011;11489;50.834;6.752;2023-07-29T07:50:08;1.67;;;1.50;;
22644;SDS011;11489;50.834;6.752;2023-07-29T07:52:34;2.28;;;1.67;;
22644;SDS011;11489;50.834;6.752;2023-07-29T07:55:00;2.50;;;1.70;;
22644;SDS011;11489;50.834;6.752;2023-07-29T07:57:25;1.50;;;1.40;;
22644;SDS011;11489;50.834;6.752;2023-07-29T07:59:51;1.70;;;1.60;;
22644;SDS011;11489;50.834;6.752;2023-07-29T08:02:17;1.70;;;1.60;;
22644;SDS011;11489;50.834;6.752;2023-07-29T08:04:43;2.10;;;1.33;;
22644;SDS011;11489;50.834;6.752;2023-07-29T08:07:09;1.60;;;1.50;;
22644;SDS011;11489;50.834;6.752;2023-07-29T08:09:35;2.33;;;1.38;;
22644;SDS011;11489;50.834;6.752;2023-07-29T08:12:00;1.38;;;1.27;;
22644;SDS011;11489;50.834;6.752;2023-07-29T08:14:26;1.55;;;1.42;;
22644;SDS011;11489;50.834;6.752;2023-07-29T08:16:52;1.90;;;1.27;;
22644;SDS011;11489;50.834;6.752;2023-07-29T08:19:18;1.52;;;1.23;;
22644;SDS011;11489;50.834;6.752;2023-07-29T08:21:43;3.25;;;1.38;;
22644;SDS011;11489;50.834;6.752;2023-07-29T08:24:09;1.58;;;1.20;;
22644;SDS011;11489;50.834;6.752;2023-07-29T08:26:34;1.30;;;1.20;;
22644;SDS011;11489;50.834;6.752;2023-07-29T08:29:00;1.35;;;1.10;;
22644;SDS011;11489;50.834;6.752;2023-07-29T08:31:26;1.33;;;1.20;;
22644;SDS011;11489;50.834;6.752;2023-07-29T08:33:51;1.50;;;1.20;;
22644;SDS011;11489;50.834;6.752;2023-07-29T08:36:17;1.45;;;1.00;;
22644;SDS011;11489;50.834;6.752;2023-07-29T08:38:43;1.40;;;1.10;;
22644;SDS011;11489;50.834;6.752;2023-07-29T08:41:16;3.85;;;1.10;;
22644;SDS011;11489;50.834;6.752;2023-07-29T08:43:52;1.52;;;0.88;;
22644;SDS011;11489;50.834;6.752;2023-07-29T08:46:24;1.35;;;1.20;;
22644;SDS011;11489;50.834;6.752;2023-07-29T08:48:51;1.88;;;1.10;;
22644;SDS011;11489;50.834;6.752;2023-07-29T08:51:17;1.40;;;1.15;;
22644;SDS011;11489;50.834;6.752;2023-07-29T08:53:44;1.70;;;1.20;;
22644;SDS011;11489;50.834;6.752;2023-07-29T08:56:10;0.95;;;0.90;;
22644;SDS011;11489;50.834;6.752;2023-07-29T08:58:37;1.35;;;1.15;;
22644;SDS011;11489;50.834;6.752;2023-07-29T09:01:04;1.27;;;1.08;;
22644;SDS011;11489;50.834;6.752;2023-07-29T09:03:30;1.10;;;1.00;;
22644;SDS011;11489;50.834;6.752;2023-07-29T09:05:57;1.33;;;1.17;;
22644;SDS011;11489;50.834;6.752;2023-07-29T09:08:24;1.63;;;1.17;;
22644;SDS011;11489;50.834;6.752;2023-07-29T09:10:53;1.40;;;1.10;;
22644;SDS011;11489;50.834;6.752;2023-07-29T09:13:20;1.23;;;1.05;;
22644;SDS011;11489;50.834;6.752;2023-07-29T09:15:46;1.48;;;1.15;;
22644;SDS011;11489;50.834;6.752;2023-07-29T09:18:16;1.48;;;1.10;;
22644;SDS011;11489;50.834;6.752;2023-07-29T09:20:43;1.23;;;0.93;;
22644;SDS011;11489;50.834;6.752;2023-07-29T09:23:12;1.10;;;1.00;;
22644;SDS011;11489;50.834;6.752;2023-07-29T09:25:39;1.35;;;1.20;;
22644;SDS011;11489;50.834;6.752;2023-07-29T09:28:12;5.88;;;1.00;;
22644;SDS011;11489;50.834;6.752;2023-07-29T09:30:40;1.52;;;0.88;;
22644;SDS011;11489;50.834;6.752;2023-07-29T09:33:08;1.40;;;1.10;;
22644;SDS011;11489;50.834;6.752;2023-07-29T09:35:34;1.23;;;1.10;;
22644;SDS011;11489;50.834;6.752;2023-07-29T09:38:02;1.38;;;1.27;;
22644;SDS011;11489;50.834;6.752;2023-07-29T09:40:33;1.83;;;1.00;;
22644;SDS011;11489;50.834;6.752;2023-07-29T09:43:03;1.20;;;1.10;;
22644;SDS011;11489;50.834;6.752;2023-07-29T09:45:29;1.20;;;0.93;;
22644;SDS011;11489;50.834;6.752;2023-07-29T09:47:58;1.30;;;1.15;;
22644;SDS011;11489;50.834;6.752;2023-07-29T09:50:24;2.15;;;1.00;;
22644;SDS011;11489;50.834;6.752;2023-07-29T09:52:51;1.10;;;1.00;;
22644;SDS011;11489;50.834;6.752;2023-07-29T09:55:18;1.00;;;0.90;;
22644;SDS011;11489;50.834;6.752;2023-07-29T09:57:44;0.95;;;0.95;;
22644;SDS011;11489;50.834;6.752;2023-07-29T10:00:10;1.85;;;1.20;;
22644;SDS011;11489;50.834;6.752;2023-07-29T10:02:38;1.27;;;1.10;;
22644;SDS011;11489;50.834;6.752;2023-07-29T10:05:08;2.65;;;1.10;;
22644;SDS011;11489;50.834;6.752;2023-07-29T10:07:38;1.40;;;1.10;;
22644;SDS011;11489;50.834;6.752;2023-07-29T10:10:05;1.50;;;1.00;;
22644;SDS011;11489;50.834;6.752;2023-07-29T10:12:32;1.17;;;1.08;;
22644;SDS011;11489;50.834;6.752;2023-07-29T10:15:00;2.03;;;1.10;;
22644;SDS011;11489;50.834;6.752;2023-07-29T10:17:30;1.40;;;1.17;;
22644;SDS011;11489;50.834;6.752;2023-07-29T10:19:59;2.60;;;1.02;;
22644;SDS011;11489;50.834;6.752;2023-07-29T10:22:32;2.50;;;0.90;;
22644;SDS011;11489;50.834;6.752;2023-07-29T10:25:02;1.13;;;1.00;;
22644;SDS011;11489;50.834;6.752;2023-07-29T10:30:14;1.05;;;0.90;;
22644;SDS011;11489;50.834;6.752;2023-07-29T10:32:43;1.60;;;1.00;;
22644;SDS011;11489;50.834;6.752;2023-07-29T10:35:10;2.22;;;1.17;;
22644;SDS011;11489;50.834;6.752;2023-07-29T10:37:38;1.33;;;0.90;;
22644;SDS011;11489;50.834;6.752;2023-07-29T10:40:06;1.58;;;1.13;;
22644;SDS011;11489;50.834;6.752;2023-07-29T10:42:33;2.88;;;1.00;;
22644;SDS011;11489;50.834;6.752;2023-07-29T10:44:58;1.80;;;1.20;;
22644;SDS011;11489;50.834;6.752;2023-07-29T10:47:25;1.85;;;1.25;;
22644;SDS011;11489;50.834;6.752;2023-07-29T10:52:30;1.25;;;1.15;;
22644;SDS011;11489;50.834;6.752;2023-07-29T10:54:59;1.88;;;1.30;;
22644;SDS011;11489;50.834;6.752;2023-07-29T10:57:37;1.40;;;1.30;;
22644;SDS011;11489;50.834;6.752;2023-07-29T11:00:06;3.03;;;1.33;;
22644;SDS011;11489;50.834;6.752;2023-07-29T11:02:36;1.38;;;1.27;;
22644;SDS011;11489;50.834;6.752;2023-07-29T11:05:21;1.35;;;1.25;;
22644;SDS011;11489;50.834;6.752;2023-07-29T11:07:48;1.65;;;1.20;;
22644;SDS011;11489;50.834;6.752;2023-07-29T11:10:14;1.20;;;1.10;;
22644;SDS011;11489;50.834;6.752;2023-07-29T11:12:47;1.20;;;1.10;;
22644;SDS011;11489;50.834;6.752;2023-07-29T11:15:23;1.55;;;1.30;;
22644;SDS011;11489;50.834;6.752;2023-07-29T11:17:54;1.40;;;1.30;;
22644;SDS011;11489;50.834;6.752;2023-07-29T11:20:31;1.23;;;1.13;;
22644;SDS011;11489;50.834;6.752;2023-07-29T11:23:02;1.42;;;1.30;;
22644;SDS011;11489;50.834;6.752;2023-07-29T11:25:29;1.38;;;1.27;;
22644;SDS011;11489;50.834;6.752;2023-07-29T11:27:57;1.30;;;1.20;;
22644;SDS011;11489;50.834;6.752;2023-07-29T11:30:23;5.20;;;1.48;;
22644;SDS011;11489;50.834;6.752;2023-07-29T11:32:52;2.95;;;1.75;;
22644;SDS011;11489;50.834;6.752;2023-07-29T11:35:18;1.33;;;1.13;;
22644;SDS011;11489;50.834;6.752;2023-07-29T11:37:45;1.25;;;1.10;;
22644;SDS011;11489;50.834;6.752;2023-07-29T11:40:13;3.50;;;1.20;;
22644;SDS011;11489;50.834;6.752;2023-07-29T11:42:50;1.75;;;1.40;;
22644;SDS011;11489;50.834;6.752;2023-07-29T11:45:16;1.58;;;1.23;;
22644;SDS011;11489;50.834;6.752;2023-07-29T11:47:42;1.83;;;1.40;;
22644;SDS011;11489;50.834;6.752;2023-07-29T11:50:09;1.50;;;1.35;;
22644;SDS011;11489;50.834;6.752;2023-07-29T11:52:41;1.50;;;1.40;;
22644;SDS011;11489;50.834;6.752;2023-07-29T11:55:08;1.55;;;1.40;;
22644;SDS011;11489;50.834;6.752;2023-07-29T11:57:38;1.65;;;1.50;;
22644;SDS011;11489;50.834;6.752;2023-07-29T12:00:05;1.50;;;1.40;;
22644;SDS011;11489;50.834;6.752;2023-07-29T12:02:38;1.48;;;1.38;;
22644;SDS011;11489;50.834;6.752;2023-07-29T12:05:05;1.58;;;1.48;;
22644;SDS011;11489;50.834;6.752;2023-07-29T12:07:33;2.20;;;1.55;;
22644;SDS011;11489;50.834;6.752;2023-07-29T12:09:58;1.25;;;1.10;;
22644;SDS011;11489;50.834;6.752;2023-07-29T12:12:24;1.98;;;1.30;;
22644;SDS011;11489;50.834;6.752;2023-07-29T12:14:50;1.45;;;1.35;;
22644;SDS011;11489;50.834;6.752;2023-07-29T12:17:16;1.45;;;1.02;;
22644;SDS011;11489;50.834;6.752;2023-07-29T12:19:43;1.10;;;1.00;;
22644;SDS011;11489;50.834;6.752;2023-07-29T12:22:09;2.08;;;1.17;;
22644;SDS011;11489;50.834;6.752;2023-07-29T12:24:36;1.63;;;1.40;;
22644;SDS011;11489;50.834;6.752;2023-07-29T12:27:03;1.77;;;1.15;;
22644;SDS011;11489;50.834;6.752;2023-07-29T12:29:30;1.20;;;1.00;;
22644;SDS011;11489;50.834;6.752;2023-07-29T12:31:59;1.60;;;1.30;;
22644;SDS011;11489;50.834;6.752;2023-07-29T12:34:27;1.20;;;1.10;;
22644;SDS011;11489;50.834;6.752;2023-07-29T12:36:53;1.55;;;1.30;;
22644;SDS011;11489;50.834;6.752;2023-07-29T12:39:30;1.67;;;1.35;;
22644;SDS011;11489;50.834;6.752;2023-07-29T12:41:59;1.20;;;1.10;;
22644;SDS011;11489;50.834;6.752;2023-07-29T12:44:30;1.65;;;1.20;;
22644;SDS011;11489;50.834;6.752;2023-07-29T12:46:57;1.20;;;1.00;;
22644;SDS011;11489;50.834;6.752;2023-07-29T12:49:23;2.55;;;1.00;;
22644;SDS011;11489;50.834;6.752;2023-07-29T12:51:50;1.27;;;1.08;;
22644;SDS011;11489;50.834;6.752;2023-07-29T12:54:15;1.10;;;0.95;;
22644;SDS011;11489;50.834;6.752;2023-07-29T12:56:41;1.45;;;1.13;;
22644;SDS011;11489;50.834;6.752;2023-07-29T12:59:06;0.80;;;0.80;;
22644;SDS011;11489;50.834;6.752;2023-07-29T13:01:32;1.83;;;1.10;;
22644;SDS011;11489;50.834;6.752;2023-07-29T13:03:58;1.20;;;1.10;;
22644;SDS011;11489;50.834;6.752;2023-07-29T13:06:23;1.00;;;1.00;;
22644;SDS011;11489;50.834;6.752;2023-07-29T13:08:49;1.20;;;1.08;;
22644;SDS011;11489;50.834;6.752;2023-07-29T13:11:15;1.00;;;0.90;;
22644;SDS011;11489;50.834;6.752;2023-07-29T13:13:42;1.70;;;1.38;;
22644;SDS011;11489;50.834;6.752;2023-07-29T13:16:07;1.40;;;1.30;;
22644;SDS011;11489;50.834;6.752;2023-07-29T13:18:33;1.10;;;1.00;;
22644;SDS011;11489;50.834;6.752;2023-07-29T13:20:59;1.20;;;1.10;;
22644;SDS011;11489;50.834;6.752;2023-07-29T13:23:25;1.98;;;1.10;;
22644;SDS011;11489;50.834;6.752;2023-07-29T13:25:52;1.40;;;1.10;;
22644;SDS011;11489;50.834;6.752;2023-07-29T13:28:18;1.23;;;1.00;;
22644;SDS011;11489;50.834;6.752;2023-07-29T13:30:44;1.10;;;0.98;;
22644;SDS011;11489;50.834;6.752;2023-07-29T13:33:10;1.83;;;1.00;;
22644;SDS011;11489;50.834;6.752;2023-07-29T13:35:36;1.48;;;1.10;;
22644;SDS011;11489;50.834;6.752;2023-07-29T13:38:01;1.20;;;1.10;;
22644;SDS011;11489;50.834;6.752;2023-07-29T13:40:27;4.97;;;1.25;;
22644;SDS011;11489;50.834;6.752;2023-07-29T13:42:53;1.35;;;0.95;;
22644;SDS011;11489;50.834;6.752;2023-07-29T13:45:20;1.25;;;1.10;;
22644;SDS011;11489;50.834;6.752;2023-07-29T13:47:45;2.38;;;1.10;;
22644;SDS011;11489;50.834;6.752;2023-07-29T13:50:11;1.58;;;1.33;;
22644;SDS011;11489;50.834;6.752;2023-07-29T13:52:37;1.40;;;1.30;;
22644;SDS011;11489;50.834;6.752;2023-07-29T13:55:03;1.50;;;1.38;;
22644;SDS011;11489;50.834;6.752;2023-07-29T13:57:30;1.65;;;1.30;;
22644;SDS011;11489;50.834;6.752;2023-07-29T13:59:56;2.70;;;1.67;;
22644;SDS011;11489;50.834;6.752;2023-07-29T14:02:21;1.50;;;1.33;;
22644;SDS011;11489;50.834;6.752;2023-07-29T14:04:47;1.20;;;1.10;;
22644;SDS011;11489;50.834;6.752;2023-07-29T14:07:13;1.70;;;1.60;;
22644;SDS011;11489;50.834;6.752;2023-07-29T14:09:38;1.88;;;1.50;;
22644;SDS011;11489;50.834;6.752;2023-07-29T14:12:05;1.90;;;1.70;;
22644;SDS011;11489;50.834;6.752;2023-07-29T14:14:31;1.83;;;1.55;;
22644;SDS011;11489;50.834;6.752;2023-07-29T14:16:57;2.28;;;1.60;;
22644;SDS011;11489;50.834;6.752;2023-07-29T14:19:23;2.13;;;1.60;;
22644;SDS011;11489;50.834;6.752;2023-07-29T14:21:49;2.17;;;1.73;;
22644;SDS011;11489;50.834;6.752;2023-07-29T14:24:14;2.00;;;1.75;;
22644;SDS011;11489;50.834;6.752;2023-07-29T14:26:41;1.70;;;1.60;;
22644;SDS011;11489;50.834;6.752;2023-07-29T14:29:07;2.92;;;1.90;;
22644;SDS011;11489;50.834;6.752;2023-07-29T14:31:33;2.03;;;1.88;;
22644;SDS011;11489;50.834;6.752;2023-07-29T14:33:58;1.90;;;1.70;;
22644;SDS011;11489;50.834;6.752;2023-07-29T14:36:25;1.50;;;1.40;;
22644;SDS011;11489;50.834;6.752;2023-07-29T14:38:50;3.25;;;1.70;;
22644;SDS011;11489;50.834;6.752;2023-07-29T14:41:16;1.88;;;1.67;;
22644;SDS011;11489;50.834;6.752;2023-07-29T14:43:42;2.40;;;1.88;;
22644;SDS011;11489;50.834;6.752;2023-07-29T14:46:08;3.30;;;1.50;;
22644;SDS011;11489;50.834;6.752;2023-07-29T14:48:33;2.95;;;1.48;;
22644;SDS011;11489;50.834;6.752;2023-07-29T14:50:59;1.75;;;1.58;;
22644;SDS011;11489;50.834;6.752;2023-07-29T14:53:25;2.97;;;1.80;;
22644;SDS011;11489;50.834;6.752;2023-07-29T14:55:51;2.00;;;1.80;;